Station History

Weather Underground - logo

Station Historical Data
Daily Summary for August 11, 2018 Units:  Both    English   Metric
« Previous Day
Next Day »
Daily Weekly Monthly Yearly Custom
  High: Low: Average:
Temperature: 98.7 °F /  37.1 °C 68.8 °F /  20.4 °C 83 °F /  28.3 °C
Dew Point: 67.4 °F /  19.7 °C 48.2 °F /  9 °C 57.6 °F /  14.2 °C
Humidity: 73 % 21 % 45 %
Wind Speed: 4.6 mph /  7.4 km/h - 0.8 mph /  1.3 km/h
Wind Gust: 2.4 mph /  3.9 km/h - -
Wind:- - SSW
Pressure: 29.94 in /  1013.8 hPa 29.78 in /  1008.4 hPa -
Precipitation: 0 in /  0 mm    
Historical Graphs
 
 
Tabular Data for August 11, 2018
Time Temperature Dew Point Pressure Wind Wind Speed Wind Gust Humidity Rainfall Rate (Hourly)
00:04 73.7 °F /  23.2 °C 63.3 °F /  17.4 °C 29.86 in /  1011.1 hPa Calm     70 % 0 in /  0 mm
00:09 73.7 °F /  23.2 °C 62.9 °F /  17.2 °C 29.86 in /  1011.1 hPa Calm     69 % 0 in /  0 mm
00:14 73.6 °F /  23.1 °C 62.8 °F /  17.1 °C 29.86 in /  1011.1 hPa Calm     69 % 0 in /  0 mm
00:19 73.6 °F /  23.1 °C 62.8 °F /  17.1 °C 29.86 in /  1011.1 hPa Calm     69 % 0 in /  0 mm
00:24 73.5 °F /  23.1 °C 62.7 °F /  17.1 °C 29.87 in /  1011.4 hPa SE 1.2 mph /  1.9 km/h   69 % 0 in /  0 mm
00:29 73.4 °F /  23 °C 62.2 °F /  16.8 °C 29.87 in /  1011.4 hPa SE 1.2 mph /  1.9 km/h   68 % 0 in /  0 mm
00:34 73.2 °F /  22.9 °C 62 °F /  16.7 °C 29.87 in /  1011.4 hPa SE 1.2 mph /  1.9 km/h   68 % 0 in /  0 mm
00:39 73.2 °F /  22.9 °C 62 °F /  16.7 °C 29.87 in /  1011.4 hPa Calm     68 % 0 in /  0 mm
00:44 73.1 °F /  22.8 °C 61.5 °F /  16.4 °C 29.87 in /  1011.4 hPa Calm   0.1 mph /  0.2 km/h 67 % 0 in /  0 mm
00:49 73 °F /  22.8 °C 61.8 °F /  16.6 °C 29.87 in /  1011.4 hPa Calm     68 % 0 in /  0 mm
00:54 72.9 °F /  22.7 °C 61.7 °F /  16.5 °C 29.87 in /  1011.4 hPa Calm     68 % 0 in /  0 mm
00:59 72.9 °F /  22.7 °C 61.3 °F /  16.3 °C 29.87 in /  1011.4 hPa Calm     67 % 0 in /  0 mm
01:04 72.8 °F /  22.7 °C 61.2 °F /  16.2 °C 29.87 in /  1011.4 hPa Calm     67 % 0 in /  0 mm
01:09 72.8 °F /  22.7 °C 61.2 °F /  16.2 °C 29.87 in /  1011.4 hPa Calm     67 % 0 in /  0 mm
01:14 72.8 °F /  22.7 °C 60.3 °F /  15.7 °C 29.87 in /  1011.4 hPa Calm     65 % 0 in /  0 mm
01:19 72.8 °F /  22.7 °C 60.3 °F /  15.7 °C 29.87 in /  1011.4 hPa Calm     65 % 0 in /  0 mm
01:24 72.6 °F /  22.6 °C 60.6 °F /  15.9 °C 29.87 in /  1011.4 hPa Calm     66 % 0 in /  0 mm
01:29 72.5 °F /  22.5 °C 60.5 °F /  15.8 °C 29.87 in /  1011.4 hPa Calm     66 % 0 in /  0 mm
01:34 72.2 °F /  22.3 °C 60.2 °F /  15.7 °C 29.87 in /  1011.4 hPa Calm     66 % 0 in /  0 mm
01:39 71.9 °F /  22.2 °C 59.1 °F /  15.1 °C 29.87 in /  1011.4 hPa SE 1 mph /  1.6 km/h   64 % 0 in /  0 mm
01:44 71.8 °F /  22.1 °C 59.4 °F /  15.2 °C 29.87 in /  1011.4 hPa Calm     65 % 0 in /  0 mm
01:49 71.6 °F /  22 °C 59.2 °F /  15.1 °C 29.87 in /  1011.4 hPa ESE 1 mph /  1.6 km/h   65 % 0 in /  0 mm
01:54 71.5 °F /  21.9 °C 59.1 °F /  15.1 °C 29.87 in /  1011.4 hPa Calm     65 % 0 in /  0 mm
01:59 71.5 °F /  21.9 °C 58.7 °F /  14.8 °C 29.87 in /  1011.4 hPa ESE 1.2 mph /  1.9 km/h   64 % 0 in /  0 mm
02:04 71.6 °F /  22 °C 57.4 °F /  14.1 °C 29.87 in /  1011.4 hPa Calm     61 % 0 in /  0 mm
02:09 71.9 °F /  22.2 °C 57.3 °F /  14.1 °C 29.87 in /  1011.4 hPa Calm   0.1 mph /  0.2 km/h 60 % 0 in /  0 mm
02:14 72.1 °F /  22.3 °C 56 °F /  13.3 °C 29.87 in /  1011.4 hPa ESE 1.2 mph /  1.9 km/h   57 % 0 in /  0 mm
02:19 72.3 °F /  22.4 °C 56.7 °F /  13.7 °C 29.87 in /  1011.4 hPa Calm     58 % 0 in /  0 mm
02:24 72.2 °F /  22.3 °C 55.6 °F /  13.1 °C 29.87 in /  1011.4 hPa Calm     56 % 0 in /  0 mm
02:29 72 °F /  22.2 °C 55.4 °F /  13 °C 29.87 in /  1011.4 hPa Calm     56 % 0 in /  0 mm
02:34 71.8 °F /  22.1 °C 54.8 °F /  12.7 °C 29.87 in /  1011.4 hPa ESE 1.2 mph /  1.9 km/h   55 % 0 in /  0 mm
02:39 71.7 °F /  22.1 °C 55.7 °F /  13.2 °C 29.88 in /  1011.7 hPa Calm     57 % 0 in /  0 mm
02:44 71.5 °F /  21.9 °C 55 °F /  12.8 °C 29.88 in /  1011.7 hPa Calm     56 % 0 in /  0 mm
02:49 71.2 °F /  21.8 °C 54.2 °F /  12.3 °C 29.87 in /  1011.4 hPa Calm     55 % 0 in /  0 mm
02:54 70.9 °F /  21.6 °C 53.4 °F /  11.9 °C 29.87 in /  1011.4 hPa Calm     54 % 0 in /  0 mm
02:59 70.9 °F /  21.6 °C 53.9 °F /  12.2 °C 29.87 in /  1011.4 hPa Calm     55 % 0 in /  0 mm
03:04 70.9 °F /  21.6 °C 54.4 °F /  12.4 °C 29.87 in /  1011.4 hPa Calm     56 % 0 in /  0 mm
03:09 70.9 °F /  21.6 °C 53.9 °F /  12.2 °C 29.87 in /  1011.4 hPa Calm     55 % 0 in /  0 mm
03:14 70.8 °F /  21.6 °C 53.8 °F /  12.1 °C 29.87 in /  1011.4 hPa Calm     55 % 0 in /  0 mm
03:19 70.7 °F /  21.5 °C 54.7 °F /  12.6 °C 29.87 in /  1011.4 hPa Calm     57 % 0 in /  0 mm
03:24 70.6 °F /  21.4 °C 54.6 °F /  12.6 °C 29.87 in /  1011.4 hPa Calm     57 % 0 in /  0 mm
03:29 70.5 °F /  21.4 °C 54 °F /  12.2 °C 29.87 in /  1011.4 hPa Calm     56 % 0 in /  0 mm
03:34 70.4 °F /  21.3 °C 54.4 °F /  12.4 °C 29.87 in /  1011.4 hPa Calm     57 % 0 in /  0 mm
03:39 70.4 °F /  21.3 °C 53 °F /  11.7 °C 29.87 in /  1011.4 hPa Calm     54 % 0 in /  0 mm
03:44 70.5 °F /  21.4 °C 52.5 °F /  11.4 °C 29.87 in /  1011.4 hPa Calm     53 % 0 in /  0 mm
03:49 70.6 °F /  21.4 °C 52.1 °F /  11.2 °C 29.87 in /  1011.4 hPa Calm     52 % 0 in /  0 mm
03:54 70.6 °F /  21.4 °C 52.6 °F /  11.4 °C 29.87 in /  1011.4 hPa Calm     53 % 0 in /  0 mm
03:59 70.5 °F /  21.4 °C 54.5 °F /  12.5 °C 29.87 in /  1011.4 hPa Calm     57 % 0 in /  0 mm
04:04 70.2 °F /  21.2 °C 53.8 °F /  12.1 °C 29.87 in /  1011.4 hPa Calm     56 % 0 in /  0 mm
04:09 70 °F /  21.1 °C 53.1 °F /  11.7 °C 29.87 in /  1011.4 hPa Calm     55 % 0 in /  0 mm
04:14 70 °F /  21.1 °C 51.6 °F /  10.9 °C 29.87 in /  1011.4 hPa Calm     52 % 0 in /  0 mm
04:19 70.1 °F /  21.2 °C 52.7 °F /  11.5 °C 29.87 in /  1011.4 hPa Calm     54 % 0 in /  0 mm
04:24 69.9 °F /  21.1 °C 53 °F /  11.7 °C 29.88 in /  1011.7 hPa Calm     55 % 0 in /  0 mm
04:29 69.6 °F /  20.9 °C 53.2 °F /  11.8 °C 29.88 in /  1011.7 hPa Calm     56 % 0 in /  0 mm
04:34 69.3 °F /  20.7 °C 52.4 °F /  11.3 °C 29.88 in /  1011.7 hPa Calm   0.1 mph /  0.2 km/h 55 % 0 in /  0 mm
04:39 69.3 °F /  20.7 °C 51.9 °F /  11.1 °C 29.88 in /  1011.7 hPa Calm     54 % 0 in /  0 mm
04:44 69.3 °F /  20.7 °C 52.4 °F /  11.3 °C 29.88 in /  1011.7 hPa Calm     55 % 0 in /  0 mm
04:49 69.2 °F /  20.7 °C 52.8 °F /  11.6 °C 29.88 in /  1011.7 hPa Calm     56 % 0 in /  0 mm
04:54 69 °F /  20.6 °C 52.6 °F /  11.4 °C 29.88 in /  1011.7 hPa Calm     56 % 0 in /  0 mm
04:59 68.9 °F /  20.5 °C 52.6 °F /  11.4 °C 29.88 in /  1011.7 hPa Calm     56 % 0 in /  0 mm
05:04 68.8 °F /  20.4 °C 52 °F /  11.1 °C 29.88 in /  1011.7 hPa Calm     55 % 0 in /  0 mm
05:09 68.8 °F /  20.4 °C 51 °F /  10.6 °C 29.89 in /  1012.1 hPa ESE 1 mph /  1.6 km/h   53 % 0 in /  0 mm
05:14 69.3 °F /  20.7 °C 50.9 °F /  10.5 °C 29.89 in /  1012.1 hPa Calm     52 % 0 in /  0 mm
05:19 69.4 °F /  20.8 °C 51 °F /  10.6 °C 29.89 in /  1012.1 hPa Calm     52 % 0 in /  0 mm
05:24 69.4 °F /  20.8 °C 51.5 °F /  10.8 °C 29.89 in /  1012.1 hPa SE 1 mph /  1.6 km/h   53 % 0 in /  0 mm
05:29 69.4 °F /  20.8 °C 50.5 °F /  10.3 °C 29.89 in /  1012.1 hPa ESE 1.2 mph /  1.9 km/h   51 % 0 in /  0 mm
05:34 69.3 °F /  20.7 °C 50.9 °F /  10.5 °C 29.89 in /  1012.1 hPa Calm     52 % 0 in /  0 mm
05:39 69.2 °F /  20.7 °C 50.3 °F /  10.2 °C 29.90 in /  1012.4 hPa SE 1.2 mph /  1.9 km/h 0.1 mph /  0.2 km/h 51 % 0 in /  0 mm
05:44 69.2 °F /  20.7 °C 50.8 °F /  10.4 °C 29.90 in /  1012.4 hPa Calm     52 % 0 in /  0 mm
05:49 69.2 °F /  20.7 °C 50.3 °F /  10.2 °C 29.90 in /  1012.4 hPa ESE 1.2 mph /  1.9 km/h   51 % 0 in /  0 mm
05:54 69.2 °F /  20.7 °C 50.3 °F /  10.2 °C 29.90 in /  1012.4 hPa Calm     51 % 0 in /  0 mm
05:59 69.1 °F /  20.6 °C 49.7 °F /  9.8 °C 29.90 in /  1012.4 hPa Calm     50 % 0 in /  0 mm
06:04 69.2 °F /  20.7 °C 49.2 °F /  9.6 °C 29.90 in /  1012.4 hPa SE 1.2 mph /  1.9 km/h   49 % 0 in /  0 mm
06:09 69.2 °F /  20.7 °C 49.2 °F /  9.6 °C 29.91 in /  1012.8 hPa SE 1.2 mph /  1.9 km/h   49 % 0 in /  0 mm
06:14 69.3 °F /  20.7 °C 48.8 °F /  9.3 °C 29.91 in /  1012.8 hPa SE 1.2 mph /  1.9 km/h   48 % 0 in /  0 mm
06:19 69.4 °F /  20.8 °C 48.9 °F /  9.4 °C 29.91 in /  1012.8 hPa Calm     48 % 0 in /  0 mm
06:24 69.3 °F /  20.7 °C 48.2 °F /  9 °C 29.91 in /  1012.8 hPa Calm     47 % 0 in /  0 mm
06:29 69.3 °F /  20.7 °C 48.8 °F /  9.3 °C 29.91 in /  1012.8 hPa Calm     48 % 0 in /  0 mm
06:34 69.4 °F /  20.8 °C 48.9 °F /  9.4 °C 29.91 in /  1012.8 hPa Calm     48 % 0 in /  0 mm
06:39 69.3 °F /  20.7 °C 48.8 °F /  9.3 °C 29.91 in /  1012.8 hPa Calm     48 % 0 in /  0 mm
06:44 69.4 °F /  20.8 °C 48.9 °F /  9.4 °C 29.91 in /  1012.8 hPa Calm     48 % 0 in /  0 mm
06:49 69.6 °F /  20.9 °C 48.5 °F /  9.2 °C 29.92 in /  1013.1 hPa Calm     47 % 0 in /  0 mm
06:54 69.7 °F /  20.9 °C 49.1 °F /  9.5 °C 29.92 in /  1013.1 hPa Calm     48 % 0 in /  0 mm
06:59 69.9 °F /  21.1 °C 48.7 °F /  9.3 °C 29.92 in /  1013.1 hPa Calm   0.1 mph /  0.2 km/h 47 % 0 in /  0 mm
07:04 70.1 °F /  21.2 °C 49.5 °F /  9.7 °C 29.92 in /  1013.1 hPa SE 1.2 mph /  1.9 km/h 0.1 mph /  0.2 km/h 48 % 0 in /  0 mm
07:09 70.3 °F /  21.3 °C 49.7 °F /  9.8 °C 29.92 in /  1013.1 hPa ESE 1.2 mph /  1.9 km/h   48 % 0 in /  0 mm
07:14 70.6 °F /  21.4 °C 50 °F /  10 °C 29.92 in /  1013.1 hPa SE 1.2 mph /  1.9 km/h 0.1 mph /  0.2 km/h 48 % 0 in /  0 mm
07:19 70.9 °F /  21.6 °C 50.2 °F /  10.1 °C 29.92 in /  1013.1 hPa Calm     48 % 0 in /  0 mm
07:24 71.3 °F /  21.8 °C 50 °F /  10 °C 29.92 in /  1013.1 hPa Calm   0.1 mph /  0.2 km/h 47 % 0 in /  0 mm
07:29 71.9 °F /  22.2 °C 51.1 °F /  10.6 °C 29.93 in /  1013.4 hPa SE 1.2 mph /  1.9 km/h   48 % 0 in /  0 mm
07:34 72.5 °F /  22.5 °C 52.2 °F /  11.2 °C 29.93 in /  1013.4 hPa Calm     49 % 0 in /  0 mm
07:39 73.2 °F /  22.9 °C 53.4 °F /  11.9 °C 29.93 in /  1013.4 hPa SE 1.2 mph /  1.9 km/h   50 % 0 in /  0 mm
07:44 73.8 °F /  23.2 °C 52.9 °F /  11.6 °C 29.93 in /  1013.4 hPa SE 1.2 mph /  1.9 km/h 0.1 mph /  0.2 km/h 48 % 0 in /  0 mm
07:49 74.2 °F /  23.4 °C 53.2 °F /  11.8 °C 29.93 in /  1013.4 hPa Calm     48 % 0 in /  0 mm
07:54 75 °F /  23.9 °C 53.4 °F /  11.9 °C 29.93 in /  1013.4 hPa SE 1.2 mph /  1.9 km/h   47 % 0 in /  0 mm
07:59 75.5 °F /  24.2 °C 52.7 °F /  11.5 °C 29.93 in /  1013.4 hPa East 1.2 mph /  1.9 km/h   45 % 0 in /  0 mm
08:04 75.8 °F /  24.3 °C 52.9 °F /  11.6 °C 29.93 in /  1013.4 hPa SE 3.5 mph /  5.6 km/h   45 % 0 in /  0 mm
08:09 76.2 °F /  24.6 °C 52.1 °F /  11.2 °C 29.93 in /  1013.4 hPa ESE 1.2 mph /  1.9 km/h 0.1 mph /  0.2 km/h 43 % 0 in /  0 mm
08:14 76.6 °F /  24.8 °C 52.4 °F /  11.3 °C 29.94 in /  1013.8 hPa SE 2 mph /  3.2 km/h 0.5 mph /  0.8 km/h 43 % 0 in /  0 mm
08:19 77 °F /  25 °C 53.4 °F /  11.9 °C 29.94 in /  1013.8 hPa Calm     44 % 0 in /  0 mm
08:24 77.8 °F /  25.4 °C 52.9 °F /  11.6 °C 29.94 in /  1013.8 hPa ESE 1.2 mph /  1.9 km/h   42 % 0 in /  0 mm
08:29 78.6 °F /  25.9 °C 53.6 °F /  12 °C 29.94 in /  1013.8 hPa SE 1 mph /  1.6 km/h 0.2 mph /  0.3 km/h 42 % 0 in /  0 mm
08:34 79 °F /  26.1 °C 53.3 °F /  11.8 °C 29.94 in /  1013.8 hPa Calm   0.1 mph /  0.2 km/h 41 % 0 in /  0 mm
08:39 79.6 °F /  26.4 °C 53.8 °F /  12.1 °C 29.94 in /  1013.8 hPa SSE 2.3 mph /  3.7 km/h   41 % 0 in /  0 mm
08:44 80.2 °F /  26.8 °C 54.4 °F /  12.4 °C 29.93 in /  1013.4 hPa ESE 1.2 mph /  1.9 km/h   41 % 0 in /  0 mm
08:49 81 °F /  27.2 °C 54.4 °F /  12.4 °C 29.93 in /  1013.4 hPa SE 1.2 mph /  1.9 km/h 0.1 mph /  0.2 km/h 40 % 0 in /  0 mm
08:54 81.6 °F /  27.6 °C 54.2 °F /  12.3 °C 29.93 in /  1013.4 hPa Calm     39 % 0 in /  0 mm
08:59 82.1 °F /  27.8 °C 54 °F /  12.2 °C 29.93 in /  1013.4 hPa Calm     38 % 0 in /  0 mm
09:04 82.7 °F /  28.2 °C 53.8 °F /  12.1 °C 29.93 in /  1013.4 hPa Calm   0.5 mph /  0.8 km/h 37 % 0 in /  0 mm
09:09 82.9 °F /  28.3 °C 52.4 °F /  11.3 °C 29.93 in /  1013.4 hPa Calm   0.3 mph /  0.5 km/h 35 % 0 in /  0 mm
09:14 83.4 °F /  28.6 °C 52.1 °F /  11.2 °C 29.93 in /  1013.4 hPa SSE 1.2 mph /  1.9 km/h   34 % 0 in /  0 mm
09:19 83.7 °F /  28.7 °C 51.5 °F /  10.8 °C 29.93 in /  1013.4 hPa ESE 1.2 mph /  1.9 km/h 0.9 mph /  1.4 km/h 33 % 0 in /  0 mm
09:24 84 °F /  28.9 °C 51.8 °F /  11 °C 29.93 in /  1013.4 hPa SE 1.2 mph /  1.9 km/h 0.1 mph /  0.2 km/h 33 % 0 in /  0 mm
09:29 84.5 °F /  29.2 °C 50.5 °F /  10.3 °C 29.93 in /  1013.4 hPa SE 3.5 mph /  5.6 km/h 1.2 mph /  1.9 km/h 31 % 0 in /  0 mm
09:34 84.9 °F /  29.4 °C 53.4 °F /  11.9 °C 29.93 in /  1013.4 hPa South 1.2 mph /  1.9 km/h 0.2 mph /  0.3 km/h 34 % 0 in /  0 mm
09:39 85.4 °F /  29.7 °C 53.8 °F /  12.1 °C 29.93 in /  1013.4 hPa SE 2.3 mph /  3.7 km/h 0.1 mph /  0.2 km/h 34 % 0 in /  0 mm
09:44 85.8 °F /  29.9 °C 51.7 °F /  10.9 °C 29.93 in /  1013.4 hPa SSE 1.2 mph /  1.9 km/h 1 mph /  1.6 km/h 31 % 0 in /  0 mm
09:49 86.1 °F /  30.1 °C 51.9 °F /  11.1 °C 29.93 in /  1013.4 hPa SE 1.2 mph /  1.9 km/h 0.8 mph /  1.3 km/h 31 % 0 in /  0 mm
09:54 86.3 °F /  30.2 °C 52.1 °F /  11.2 °C 29.93 in /  1013.4 hPa SSE 1.2 mph /  1.9 km/h 0.8 mph /  1.3 km/h 31 % 0 in /  0 mm
09:59 86.9 °F /  30.5 °C 54.3 °F /  12.4 °C 29.93 in /  1013.4 hPa SSW 1.2 mph /  1.9 km/h 0.2 mph /  0.3 km/h 33 % 0 in /  0 mm
10:04 87.1 °F /  30.6 °C 51.9 °F /  11.1 °C 29.93 in /  1013.4 hPa SE 4.6 mph /  7.4 km/h 0.9 mph /  1.4 km/h 30 % 0 in /  0 mm
10:09 87.4 °F /  30.8 °C 52.2 °F /  11.2 °C 29.93 in /  1013.4 hPa South 2 mph /  3.2 km/h 1 mph /  1.6 km/h 30 % 0 in /  0 mm
10:14 87.7 °F /  30.9 °C 53.3 °F /  11.8 °C 29.93 in /  1013.4 hPa SSW 2.3 mph /  3.7 km/h 0.7 mph /  1.1 km/h 31 % 0 in /  0 mm
10:19 88.3 °F /  31.3 °C 52.9 °F /  11.6 °C 29.93 in /  1013.4 hPa South 1.2 mph /  1.9 km/h 0.3 mph /  0.5 km/h 30 % 0 in /  0 mm
10:24 88.7 °F /  31.5 °C 54.2 °F /  12.3 °C 29.93 in /  1013.4 hPa SSE 2 mph /  3.2 km/h 0.3 mph /  0.5 km/h 31 % 0 in /  0 mm
10:29 88.9 °F /  31.6 °C 54.4 °F /  12.4 °C 29.92 in /  1013.1 hPa SSW 2.3 mph /  3.7 km/h 0.6 mph /  1 km/h 31 % 0 in /  0 mm
10:34 89.2 °F /  31.8 °C 54.6 °F /  12.6 °C 29.92 in /  1013.1 hPa Calm     31 % 0 in /  0 mm
10:39 89.7 °F /  32.1 °C 56.8 °F /  13.8 °C 29.93 in /  1013.4 hPa North 1 mph /  1.6 km/h 0.2 mph /  0.3 km/h 33 % 0 in /  0 mm
10:44 89.9 °F /  32.2 °C 55.2 °F /  12.9 °C 29.92 in /  1013.1 hPa NW 1.2 mph /  1.9 km/h 0.2 mph /  0.3 km/h 31 % 0 in /  0 mm
10:49 90 °F /  32.2 °C 55.3 °F /  12.9 °C 29.92 in /  1013.1 hPa ENE 3.5 mph /  5.6 km/h 1.2 mph /  1.9 km/h 31 % 0 in /  0 mm
10:54 89.8 °F /  32.1 °C 55.1 °F /  12.8 °C 29.93 in /  1013.4 hPa SSW 1.2 mph /  1.9 km/h 0.9 mph /  1.4 km/h 31 % 0 in /  0 mm
10:59 90.4 °F /  32.4 °C 56.5 °F /  13.6 °C 29.93 in /  1013.4 hPa Calm   0.2 mph /  0.3 km/h 32 % 0 in /  0 mm
11:04 90.9 °F /  32.7 °C 56.1 °F /  13.4 °C 29.92 in /  1013.1 hPa NNE 1 mph /  1.6 km/h   31 % 0 in /  0 mm
11:09 91 °F /  32.8 °C 57 °F /  13.9 °C 29.92 in /  1013.1 hPa SSE 1.2 mph /  1.9 km/h 0.2 mph /  0.3 km/h 32 % 0 in /  0 mm
11:14 91.5 °F /  33.1 °C 56.6 °F /  13.7 °C 29.92 in /  1013.1 hPa SE 1.2 mph /  1.9 km/h 0.3 mph /  0.5 km/h 31 % 0 in /  0 mm
11:19 91.9 °F /  33.3 °C 56.9 °F /  13.8 °C 29.92 in /  1013.1 hPa SSW 2.3 mph /  3.7 km/h 0.6 mph /  1 km/h 31 % 0 in /  0 mm
11:24 92.3 °F /  33.5 °C 59 °F /  15 °C 29.92 in /  1013.1 hPa NW 1.2 mph /  1.9 km/h   33 % 0 in /  0 mm
11:29 92.5 °F /  33.6 °C 57.5 °F /  14.2 °C 29.92 in /  1013.1 hPa NNW 1.2 mph /  1.9 km/h   31 % 0 in /  0 mm
11:34 92.5 °F /  33.6 °C 59.2 °F /  15.1 °C 29.92 in /  1013.1 hPa South 1.2 mph /  1.9 km/h   33 % 0 in /  0 mm
11:39 92.6 °F /  33.7 °C 59.3 °F /  15.2 °C 29.92 in /  1013.1 hPa NW 1 mph /  1.6 km/h 0.7 mph /  1.1 km/h 33 % 0 in /  0 mm
11:44 92.5 °F /  33.6 °C 55.6 °F /  13.1 °C 29.92 in /  1013.1 hPa NW 2.3 mph /  3.7 km/h 1.1 mph /  1.8 km/h 29 % 0 in /  0 mm
11:49 92.2 °F /  33.4 °C 54.4 °F /  12.4 °C 29.92 in /  1013.1 hPa NW 2.3 mph /  3.7 km/h 0.7 mph /  1.1 km/h 28 % 0 in /  0 mm
11:54 92.3 °F /  33.5 °C 56.4 °F /  13.6 °C 29.91 in /  1012.8 hPa SE 1.2 mph /  1.9 km/h 0.5 mph /  0.8 km/h 30 % 0 in /  0 mm
11:59 92.6 °F /  33.7 °C 55.7 °F /  13.2 °C 29.92 in /  1013.1 hPa WSW 2.3 mph /  3.7 km/h 0.9 mph /  1.4 km/h 29 % 0 in /  0 mm
12:04 92.6 °F /  33.7 °C 57.6 °F /  14.2 °C 29.91 in /  1012.8 hPa WNW 1.2 mph /  1.9 km/h 0.5 mph /  0.8 km/h 31 % 0 in /  0 mm
12:09 92.9 °F /  33.8 °C 56 °F /  13.3 °C 29.91 in /  1012.8 hPa North 3.5 mph /  5.6 km/h 1.2 mph /  1.9 km/h 29 % 0 in /  0 mm
12:14 92.9 °F /  33.8 °C 57.8 °F /  14.3 °C 29.91 in /  1012.8 hPa Calm   0.5 mph /  0.8 km/h 31 % 0 in /  0 mm
12:19 93.2 °F /  34 °C 58.1 °F /  14.5 °C 29.91 in /  1012.8 hPa NNE 2 mph /  3.2 km/h 1 mph /  1.6 km/h 31 % 0 in /  0 mm
12:24 93 °F /  33.9 °C 56 °F /  13.3 °C 29.90 in /  1012.4 hPa WNW 2.3 mph /  3.7 km/h 1.1 mph /  1.8 km/h 29 % 0 in /  0 mm
12:29 93.5 °F /  34.2 °C 57.4 °F /  14.1 °C 29.90 in /  1012.4 hPa North 2 mph /  3.2 km/h 0.5 mph /  0.8 km/h 30 % 0 in /  0 mm
12:34 93.6 °F /  34.2 °C 55.6 °F /  13.1 °C 29.90 in /  1012.4 hPa NW 2.3 mph /  3.7 km/h   28 % 0 in /  0 mm
12:39 94.2 °F /  34.6 °C 59.8 °F /  15.4 °C 29.90 in /  1012.4 hPa NNW 2.3 mph /  3.7 km/h 0.1 mph /  0.2 km/h 32 % 0 in /  0 mm
12:44 94.5 °F /  34.7 °C 56.4 °F /  13.6 °C 29.90 in /  1012.4 hPa NW 2.3 mph /  3.7 km/h 0.6 mph /  1 km/h 28 % 0 in /  0 mm
12:49 94.4 °F /  34.7 °C 56.3 °F /  13.5 °C 29.90 in /  1012.4 hPa NNW 3.5 mph /  5.6 km/h 0.3 mph /  0.5 km/h 28 % 0 in /  0 mm
12:54 94.5 °F /  34.7 °C 54.3 °F /  12.4 °C 29.90 in /  1012.4 hPa NNE 3.5 mph /  5.6 km/h 1 mph /  1.6 km/h 26 % 0 in /  0 mm
12:59 94.8 °F /  34.9 °C 56.6 °F /  13.7 °C 29.90 in /  1012.4 hPa SE 2 mph /  3.2 km/h 0.3 mph /  0.5 km/h 28 % 0 in /  0 mm
13:04 95.3 °F /  35.2 °C 56 °F /  13.3 °C 29.90 in /  1012.4 hPa North 1.2 mph /  1.9 km/h 0.2 mph /  0.3 km/h 27 % 0 in /  0 mm
13:09 95.8 °F /  35.4 °C 58.4 °F /  14.7 °C 29.90 in /  1012.4 hPa West 2 mph /  3.2 km/h 1.1 mph /  1.8 km/h 29 % 0 in /  0 mm
13:14 95.9 °F /  35.5 °C 55.5 °F /  13.1 °C 29.89 in /  1012.1 hPa North 1.2 mph /  1.9 km/h   26 % 0 in /  0 mm
13:19 95.9 °F /  35.5 °C 57.6 °F /  14.2 °C 29.89 in /  1012.1 hPa NW 3.5 mph /  5.6 km/h 1.3 mph /  2.1 km/h 28 % 0 in /  0 mm
13:24 95.5 °F /  35.3 °C 56.2 °F /  13.4 °C 29.89 in /  1012.1 hPa NNW 2.3 mph /  3.7 km/h 1 mph /  1.6 km/h 27 % 0 in /  0 mm
13:29 95.7 °F /  35.4 °C 57.4 °F /  14.1 °C 29.89 in /  1012.1 hPa ENE 1.2 mph /  1.9 km/h 0.5 mph /  0.8 km/h 28 % 0 in /  0 mm
13:34 96.2 °F /  35.7 °C 53.6 °F /  12 °C 29.88 in /  1011.7 hPa NW 2.3 mph /  3.7 km/h 0.4 mph /  0.6 km/h 24 % 0 in /  0 mm
13:39 96.1 °F /  35.6 °C 56.7 °F /  13.7 °C 29.88 in /  1011.7 hPa Calm     27 % 0 in /  0 mm
13:44 96.8 °F /  36 °C 57.3 °F /  14.1 °C 29.88 in /  1011.7 hPa Calm   0.2 mph /  0.3 km/h 27 % 0 in /  0 mm
13:49 97.6 °F /  36.4 °C 54.7 °F /  12.6 °C 29.88 in /  1011.7 hPa WNW 1.2 mph /  1.9 km/h 0.5 mph /  0.8 km/h 24 % 0 in /  0 mm
13:54 96.9 °F /  36.1 °C 50.5 °F /  10.3 °C 29.88 in /  1011.7 hPa West 2.3 mph /  3.7 km/h 1.4 mph /  2.3 km/h 21 % 0 in /  0 mm
13:59 96.6 °F /  35.9 °C 51.5 °F /  10.8 °C 29.88 in /  1011.7 hPa NNE 2.3 mph /  3.7 km/h 0.6 mph /  1 km/h 22 % 0 in /  0 mm
14:04 97.2 °F /  36.2 °C 54.4 °F /  12.4 °C 29.87 in /  1011.4 hPa NNE 1.2 mph /  1.9 km/h 0.1 mph /  0.2 km/h 24 % 0 in /  0 mm
14:09 97.7 °F /  36.5 °C 53.6 °F /  12 °C 29.87 in /  1011.4 hPa NW 1.2 mph /  1.9 km/h 0.8 mph /  1.3 km/h 23 % 0 in /  0 mm
14:14 97.6 °F /  36.4 °C 59 °F /  15 °C 29.87 in /  1011.4 hPa North 1.2 mph /  1.9 km/h 0.5 mph /  0.8 km/h 28 % 0 in /  0 mm
14:19 97.6 °F /  36.4 °C 53.6 °F /  12 °C 29.87 in /  1011.4 hPa SSW 3.5 mph /  5.6 km/h 0.2 mph /  0.3 km/h 23 % 0 in /  0 mm
14:24 97.6 °F /  36.4 °C 54.7 °F /  12.6 °C 29.86 in /  1011.1 hPa North 1.2 mph /  1.9 km/h 0.5 mph /  0.8 km/h 24 % 0 in /  0 mm
14:29 97.6 °F /  36.4 °C 55.9 °F /  13.3 °C 29.86 in /  1011.1 hPa NW 1.2 mph /  1.9 km/h 0.1 mph /  0.2 km/h 25 % 0 in /  0 mm
14:34 97.9 °F /  36.6 °C 55 °F /  12.8 °C 29.86 in /  1011.1 hPa NW 2 mph /  3.2 km/h 0.4 mph /  0.6 km/h 24 % 0 in /  0 mm
14:39 97.2 °F /  36.2 °C 55.5 °F /  13.1 °C 29.86 in /  1011.1 hPa SW 1.2 mph /  1.9 km/h   25 % 0 in /  0 mm
14:44 97.4 °F /  36.3 °C 57.8 °F /  14.3 °C 29.86 in /  1011.1 hPa NW 1.2 mph /  1.9 km/h 0.6 mph /  1 km/h 27 % 0 in /  0 mm
14:49 97.4 °F /  36.3 °C 57.8 °F /  14.3 °C 29.85 in /  1010.7 hPa ESE 2.3 mph /  3.7 km/h 1 mph /  1.6 km/h 27 % 0 in /  0 mm
14:54 97.7 °F /  36.5 °C 57 °F /  13.9 °C 29.85 in /  1010.7 hPa NNW 1.2 mph /  1.9 km/h   26 % 0 in /  0 mm
14:59 98.2 °F /  36.8 °C 55.2 °F /  12.9 °C 29.85 in /  1010.7 hPa NW 2.3 mph /  3.7 km/h 0.4 mph /  0.6 km/h 24 % 0 in /  0 mm
15:04 98.3 °F /  36.8 °C 57.5 °F /  14.2 °C 29.85 in /  1010.7 hPa WSW 2.3 mph /  3.7 km/h   26 % 0 in /  0 mm
15:09 98.5 °F /  36.9 °C 59.8 °F /  15.4 °C 29.84 in /  1010.4 hPa ENE 1.2 mph /  1.9 km/h 0.3 mph /  0.5 km/h 28 % 0 in /  0 mm
15:14 98.2 °F /  36.8 °C 56.4 °F /  13.6 °C 29.84 in /  1010.4 hPa WNW 1.2 mph /  1.9 km/h 0.5 mph /  0.8 km/h 25 % 0 in /  0 mm
15:19 98.4 °F /  36.9 °C 59.7 °F /  15.4 °C 29.84 in /  1010.4 hPa ESE 2.3 mph /  3.7 km/h 0.3 mph /  0.5 km/h 28 % 0 in /  0 mm
15:24 98 °F /  36.7 °C 57.3 °F /  14.1 °C 29.84 in /  1010.4 hPa WNW 2.3 mph /  3.7 km/h 0.3 mph /  0.5 km/h 26 % 0 in /  0 mm
15:29 98 °F /  36.7 °C 56.2 °F /  13.4 °C 29.84 in /  1010.4 hPa NW 2.3 mph /  3.7 km/h 0.1 mph /  0.2 km/h 25 % 0 in /  0 mm
15:34 98.5 °F /  36.9 °C 59.8 °F /  15.4 °C 29.83 in /  1010 hPa SW 1.2 mph /  1.9 km/h 0.1 mph /  0.2 km/h 28 % 0 in /  0 mm
15:39 98.4 °F /  36.9 °C 56.5 °F /  13.6 °C 29.83 in /  1010 hPa NW 1.2 mph /  1.9 km/h 1 mph /  1.6 km/h 25 % 0 in /  0 mm
15:44 98.2 °F /  36.8 °C 58.5 °F /  14.7 °C 29.83 in /  1010 hPa NNW 2.3 mph /  3.7 km/h 0.5 mph /  0.8 km/h 27 % 0 in /  0 mm
15:49 98 °F /  36.7 °C 57.3 °F /  14.1 °C 29.83 in /  1010 hPa Calm   0.5 mph /  0.8 km/h 26 % 0 in /  0 mm
15:54 98.1 °F /  36.7 °C 58.4 °F /  14.7 °C 29.83 in /  1010 hPa East 2.3 mph /  3.7 km/h 0.4 mph /  0.6 km/h 27 % 0 in /  0 mm
15:59 98.4 °F /  36.9 °C 60.7 °F /  15.9 °C 29.83 in /  1010 hPa Calm     29 % 0 in /  0 mm
16:04 98.7 °F /  37.1 °C 59.9 °F /  15.5 °C 29.83 in /  1010 hPa Calm     28 % 0 in /  0 mm
16:09 98.7 °F /  37.1 °C 59.9 °F /  15.5 °C 29.83 in /  1010 hPa WSW 1.2 mph /  1.9 km/h 0.2 mph /  0.3 km/h 28 % 0 in /  0 mm
16:14 98.1 °F /  36.7 °C 59.4 °F /  15.2 °C 29.82 in /  1009.7 hPa West 2 mph /  3.2 km/h 0.3 mph /  0.5 km/h 28 % 0 in /  0 mm
16:19 97.4 °F /  36.3 °C 58.8 °F /  14.9 °C 29.82 in /  1009.7 hPa WNW 2.3 mph /  3.7 km/h 0.9 mph /  1.4 km/h 28 % 0 in /  0 mm
16:24 97 °F /  36.1 °C 59.5 °F /  15.3 °C 29.82 in /  1009.7 hPa WNW 1.2 mph /  1.9 km/h 0.1 mph /  0.2 km/h 29 % 0 in /  0 mm
16:29 97.1 °F /  36.2 °C 58.6 °F /  14.8 °C 29.82 in /  1009.7 hPa West 3.5 mph /  5.6 km/h 0.9 mph /  1.4 km/h 28 % 0 in /  0 mm
16:34 96.8 °F /  36 °C 58.3 °F /  14.6 °C 29.82 in /  1009.7 hPa NE 3.5 mph /  5.6 km/h 1.9 mph /  3.1 km/h 28 % 0 in /  0 mm
16:39 96.5 °F /  35.8 °C 59 °F /  15 °C 29.82 in /  1009.7 hPa NW 1.2 mph /  1.9 km/h 0.8 mph /  1.3 km/h 29 % 0 in /  0 mm
16:44 96.4 °F /  35.8 °C 59 °F /  15 °C 29.81 in /  1009.4 hPa NW 3.5 mph /  5.6 km/h 1.6 mph /  2.6 km/h 29 % 0 in /  0 mm
16:49 96.1 °F /  35.6 °C 59.7 °F /  15.4 °C 29.81 in /  1009.4 hPa NNW 3.5 mph /  5.6 km/h 2.4 mph /  3.9 km/h 30 % 0 in /  0 mm
16:54 95.9 °F /  35.5 °C 58.5 °F /  14.7 °C 29.81 in /  1009.4 hPa WNW 1.2 mph /  1.9 km/h 1.3 mph /  2.1 km/h 29 % 0 in /  0 mm
16:59 95.9 °F /  35.5 °C 59.5 °F /  15.3 °C 29.81 in /  1009.4 hPa NW 1.2 mph /  1.9 km/h 0.6 mph /  1 km/h 30 % 0 in /  0 mm
17:04 96.1 °F /  35.6 °C 59.7 °F /  15.4 °C 29.81 in /  1009.4 hPa WNW 2 mph /  3.2 km/h 1.5 mph /  2.4 km/h 30 % 0 in /  0 mm
17:09 95.9 °F /  35.5 °C 59.5 °F /  15.3 °C 29.81 in /  1009.4 hPa WNW 2 mph /  3.2 km/h 1.1 mph /  1.8 km/h 30 % 0 in /  0 mm
17:14 96 °F /  35.6 °C 59.6 °F /  15.3 °C 29.81 in /  1009.4 hPa WNW 2.3 mph /  3.7 km/h 0.8 mph /  1.3 km/h 30 % 0 in /  0 mm
17:19 95.9 °F /  35.5 °C 59.5 °F /  15.3 °C 29.81 in /  1009.4 hPa NW 1 mph /  1.6 km/h 0.4 mph /  0.6 km/h 30 % 0 in /  0 mm
17:24 95.8 °F /  35.4 °C 58.4 °F /  14.7 °C 29.81 in /  1009.4 hPa WNW 1.2 mph /  1.9 km/h 0.1 mph /  0.2 km/h 29 % 0 in /  0 mm
17:29 96 °F /  35.6 °C 58.6 °F /  14.8 °C 29.81 in /  1009.4 hPa WNW 1.2 mph /  1.9 km/h 1 mph /  1.6 km/h 29 % 0 in /  0 mm
17:34 96 °F /  35.6 °C 58.6 °F /  14.8 °C 29.81 in /  1009.4 hPa Calm     29 % 0 in /  0 mm
17:39 96 °F /  35.6 °C 58.6 °F /  14.8 °C 29.80 in /  1009 hPa WNW 1.2 mph /  1.9 km/h 0.2 mph /  0.3 km/h 29 % 0 in /  0 mm
17:44 96.3 °F /  35.7 °C 59.8 °F /  15.4 °C 29.80 in /  1009 hPa WNW 1.2 mph /  1.9 km/h   30 % 0 in /  0 mm
17:49 96 °F /  35.6 °C 59.6 °F /  15.3 °C 29.79 in /  1008.7 hPa NW 2.3 mph /  3.7 km/h 0.9 mph /  1.4 km/h 30 % 0 in /  0 mm
17:54 95.4 °F /  35.2 °C 58.1 °F /  14.5 °C 29.79 in /  1008.7 hPa NW 2.3 mph /  3.7 km/h 1.3 mph /  2.1 km/h 29 % 0 in /  0 mm
17:59 95 °F /  35 °C 58.7 °F /  14.8 °C 29.79 in /  1008.7 hPa NW 2 mph /  3.2 km/h 1.1 mph /  1.8 km/h 30 % 0 in /  0 mm
18:04 94.8 °F /  34.9 °C 59.5 °F /  15.3 °C 29.79 in /  1008.7 hPa WSW 1.2 mph /  1.9 km/h 0.4 mph /  0.6 km/h 31 % 0 in /  0 mm
18:09 94.6 °F /  34.8 °C 59.3 °F /  15.2 °C 29.79 in /  1008.7 hPa WNW 1.2 mph /  1.9 km/h 0.4 mph /  0.6 km/h 31 % 0 in /  0 mm
18:14 94.4 °F /  34.7 °C 59.1 °F /  15.1 °C 29.79 in /  1008.7 hPa WNW 1.2 mph /  1.9 km/h 0.1 mph /  0.2 km/h 31 % 0 in /  0 mm
18:19 94.2 °F /  34.6 °C 59.8 °F /  15.4 °C 29.79 in /  1008.7 hPa NW 1.2 mph /  1.9 km/h   32 % 0 in /  0 mm
18:24 94 °F /  34.4 °C 59.7 °F /  15.4 °C 29.78 in /  1008.4 hPa NW 1 mph /  1.6 km/h 0.1 mph /  0.2 km/h 32 % 0 in /  0 mm
18:29 93.8 °F /  34.3 °C 59.5 °F /  15.3 °C 29.78 in /  1008.4 hPa Calm   0.2 mph /  0.3 km/h 32 % 0 in /  0 mm
18:34 93.5 °F /  34.2 °C 59.2 °F /  15.1 °C 29.78 in /  1008.4 hPa Calm     32 % 0 in /  0 mm
18:39 93.1 °F /  33.9 °C 58.9 °F /  14.9 °C 29.78 in /  1008.4 hPa WNW 2.3 mph /  3.7 km/h 1 mph /  1.6 km/h 32 % 0 in /  0 mm
18:44 92.6 °F /  33.7 °C 61 °F /  16.1 °C 29.78 in /  1008.4 hPa Calm     35 % 0 in /  0 mm
18:49 92.1 °F /  33.4 °C 60.5 °F /  15.8 °C 29.78 in /  1008.4 hPa Calm     35 % 0 in /  0 mm
18:54 91.8 °F /  33.2 °C 61 °F /  16.1 °C 29.78 in /  1008.4 hPa Calm     36 % 0 in /  0 mm
18:59 91.4 °F /  33 °C 60.7 °F /  15.9 °C 29.78 in /  1008.4 hPa Calm     36 % 0 in /  0 mm
19:04 91.1 °F /  32.8 °C 61.2 °F /  16.2 °C 29.78 in /  1008.4 hPa NNW 1.2 mph /  1.9 km/h   37 % 0 in /  0 mm
19:09 90.8 °F /  32.7 °C 61.7 °F /  16.5 °C 29.79 in /  1008.7 hPa Calm     38 % 0 in /  0 mm
19:14 90.4 °F /  32.4 °C 62.1 °F /  16.7 °C 29.79 in /  1008.7 hPa Calm     39 % 0 in /  0 mm
19:19 90.1 °F /  32.3 °C 61.8 °F /  16.6 °C 29.78 in /  1008.4 hPa Calm     39 % 0 in /  0 mm
19:24 89.8 °F /  32.1 °C 61.5 °F /  16.4 °C 29.78 in /  1008.4 hPa Calm     39 % 0 in /  0 mm
19:29 89.5 °F /  31.9 °C 62 °F /  16.7 °C 29.79 in /  1008.7 hPa Calm     40 % 0 in /  0 mm
19:34 89.1 °F /  31.7 °C 62.3 °F /  16.8 °C 29.79 in /  1008.7 hPa Calm     41 % 0 in /  0 mm
19:39 88.7 °F /  31.5 °C 62.7 °F /  17.1 °C 29.79 in /  1008.7 hPa Calm     42 % 0 in /  0 mm
19:44 88.3 °F /  31.3 °C 63 °F /  17.2 °C 29.79 in /  1008.7 hPa Calm     43 % 0 in /  0 mm
19:49 87.7 °F /  30.9 °C 63.1 °F /  17.3 °C 29.79 in /  1008.7 hPa Calm     44 % 0 in /  0 mm
19:54 87 °F /  30.6 °C 63.7 °F /  17.6 °C 29.79 in /  1008.7 hPa Calm     46 % 0 in /  0 mm
19:59 86.5 °F /  30.3 °C 63.9 °F /  17.7 °C 29.79 in /  1008.7 hPa Calm     47 % 0 in /  0 mm
20:04 86 °F /  30 °C 63.4 °F /  17.4 °C 29.80 in /  1009 hPa Calm     47 % 0 in /  0 mm
20:09 85.5 °F /  29.7 °C 65.3 °F /  18.5 °C 29.80 in /  1009 hPa Calm     51 % 0 in /  0 mm
20:14 84.9 °F /  29.4 °C 65.9 °F /  18.8 °C 29.80 in /  1009 hPa Calm     53 % 0 in /  0 mm
20:19 84.4 °F /  29.1 °C 65.4 °F /  18.6 °C 29.80 in /  1009 hPa Calm     53 % 0 in /  0 mm
20:24 83.9 °F /  28.8 °C 66 °F /  18.9 °C 29.80 in /  1009 hPa Calm     55 % 0 in /  0 mm
20:29 83.4 °F /  28.6 °C 66.1 °F /  18.9 °C 29.80 in /  1009 hPa Calm     56 % 0 in /  0 mm
20:34 82.8 °F /  28.2 °C 63.9 °F /  17.7 °C 29.80 in /  1009 hPa Calm     53 % 0 in /  0 mm
20:39 82.5 °F /  28.1 °C 64.2 °F /  17.9 °C 29.80 in /  1009 hPa Calm     54 % 0 in /  0 mm
20:44 82.2 °F /  27.9 °C 65.4 °F /  18.6 °C 29.81 in /  1009.4 hPa Calm     57 % 0 in /  0 mm
20:48 81.9 °F /  27.7 °C 64.7 °F /  18.2 °C 29.81 in /  1009.4 hPa Calm     56 % 0 in /  0 mm
20:54 81.5 °F /  27.5 °C 64.8 °F /  18.2 °C 29.81 in /  1009.4 hPa Calm     57 % 0 in /  0 mm
20:59 81.3 °F /  27.4 °C 65.6 °F /  18.7 °C 29.81 in /  1009.4 hPa Calm     59 % 0 in /  0 mm
21:04 81 °F /  27.2 °C 66.8 °F /  19.3 °C 29.81 in /  1009.4 hPa Calm     62 % 0 in /  0 mm
21:09 81 °F /  27.2 °C 65.3 °F /  18.5 °C 29.82 in /  1009.7 hPa Calm     59 % 0 in /  0 mm
21:14 81 °F /  27.2 °C 66.8 °F /  19.3 °C 29.82 in /  1009.7 hPa Calm     62 % 0 in /  0 mm
21:19 80.9 °F /  27.2 °C 64.7 °F /  18.2 °C 29.82 in /  1009.7 hPa Calm     58 % 0 in /  0 mm
21:24 80.8 °F /  27.1 °C 64.1 °F /  17.8 °C 29.82 in /  1009.7 hPa Calm     57 % 0 in /  0 mm
21:29 80.8 °F /  27.1 °C 65.6 °F /  18.7 °C 29.82 in /  1009.7 hPa Calm     60 % 0 in /  0 mm
21:34 80.8 °F /  27.1 °C 65.1 °F /  18.4 °C 29.82 in /  1009.7 hPa Calm     59 % 0 in /  0 mm
21:39 80.9 °F /  27.2 °C 65.2 °F /  18.4 °C 29.82 in /  1009.7 hPa Calm     59 % 0 in /  0 mm
21:44 80.9 °F /  27.2 °C 66.2 °F /  19 °C 29.82 in /  1009.7 hPa Calm     61 % 0 in /  0 mm
21:49 80.7 °F /  27.1 °C 67.4 °F /  19.7 °C 29.83 in /  1010 hPa Calm     64 % 0 in /  0 mm
21:54 80 °F /  26.7 °C 65.3 °F /  18.5 °C 29.83 in /  1010 hPa Calm     61 % 0 in /  0 mm
21:59 79.6 °F /  26.4 °C 65.4 °F /  18.6 °C 29.83 in /  1010 hPa Calm     62 % 0 in /  0 mm
22:04 79.3 °F /  26.3 °C 67 °F /  19.4 °C 29.83 in /  1010 hPa Calm     66 % 0 in /  0 mm
22:09 78.8 °F /  26 °C 65.1 °F /  18.4 °C 29.83 in /  1010 hPa Calm     63 % 0 in /  0 mm
22:14 78.5 °F /  25.8 °C 66.6 °F /  19.2 °C 29.83 in /  1010 hPa Calm     67 % 0 in /  0 mm
22:19 78 °F /  25.6 °C 67 °F /  19.4 °C 29.83 in /  1010 hPa NNW 1.2 mph /  1.9 km/h   69 % 0 in /  0 mm
22:24 77.6 °F /  25.3 °C 66.2 °F /  19 °C 29.83 in /  1010 hPa Calm     68 % 0 in /  0 mm
22:29 77.6 °F /  25.3 °C 66.2 °F /  19 °C 29.83 in /  1010 hPa Calm     68 % 0 in /  0 mm
22:34 77.6 °F /  25.3 °C 66.6 °F /  19.2 °C 29.83 in /  1010 hPa Calm     69 % 0 in /  0 mm
22:39 77.7 °F /  25.4 °C 65.9 °F /  18.8 °C 29.83 in /  1010 hPa Calm     67 % 0 in /  0 mm
22:44 77.7 °F /  25.4 °C 65.9 °F /  18.8 °C 29.83 in /  1010 hPa Calm     67 % 0 in /  0 mm
22:49 77.8 °F /  25.4 °C 66 °F /  18.9 °C 29.82 in /  1009.7 hPa Calm     67 % 0 in /  0 mm
22:54 77.8 °F /  25.4 °C 65.5 °F /  18.6 °C 29.82 in /  1009.7 hPa Calm     66 % 0 in /  0 mm
22:59 77.8 °F /  25.4 °C 65.1 °F /  18.4 °C 29.82 in /  1009.7 hPa Calm     65 % 0 in /  0 mm
23:04 77.6 °F /  25.3 °C 64.9 °F /  18.3 °C 29.82 in /  1009.7 hPa Calm     65 % 0 in /  0 mm
23:09 77.6 °F /  25.3 °C 66.2 °F /  19 °C 29.83 in /  1010 hPa Calm     68 % 0 in /  0 mm
23:14 77.6 °F /  25.3 °C 66.6 °F /  19.2 °C 29.83 in /  1010 hPa Calm     69 % 0 in /  0 mm
23:19 77 °F /  25 °C 66.9 °F /  19.4 °C 29.83 in /  1010 hPa Calm     71 % 0 in /  0 mm
23:24 76.4 °F /  24.7 °C 66.3 °F /  19.1 °C 29.83 in /  1010 hPa Calm     71 % 0 in /  0 mm
23:29 76.1 °F /  24.5 °C 66.4 °F /  19.1 °C 29.83 in /  1010 hPa Calm     72 % 0 in /  0 mm
23:34 75.9 °F /  24.4 °C 65.4 °F /  18.6 °C 29.83 in /  1010 hPa Calm     70 % 0 in /  0 mm
23:39 76 °F /  24.4 °C 65.9 °F /  18.8 °C 29.83 in /  1010 hPa Calm     71 % 0 in /  0 mm
23:44 75.7 °F /  24.3 °C 66 °F /  18.9 °C 29.84 in /  1010.4 hPa Calm     72 % 0 in /  0 mm
23:49 75.3 °F /  24.1 °C 66 °F /  18.9 °C 29.83 in /  1010 hPa Calm     73 % 0 in /  0 mm
23:54 75.1 °F /  23.9 °C 65.5 °F /  18.6 °C 29.83 in /  1010 hPa Calm     72 % 0 in /  0 mm
23:59 75 °F /  23.9 °C 65.4 °F /  18.6 °C 29.83 in /  1010 hPa Calm     72 % 0 in /  0 mm
Park Place, Exeter, Tulare County, California, USA
Compliments of Weather Underground - 2.75 mb